sensor_id;sensor_type;location;lat;lon;timestamp;P1;durP1;ratioP1;P2;durP2;ratioP2
79284;SDS011;68734;50.452;11.636;2023-04-06T00:01:53;3.95;;;2.60;;
79284;SDS011;68734;50.452;11.636;2023-04-06T00:04:18;7.32;;;3.17;;
79284;SDS011;68734;50.452;11.636;2023-04-06T00:06:44;3.65;;;2.63;;
79284;SDS011;68734;50.452;11.636;2023-04-06T00:09:09;5.35;;;3.03;;
79284;SDS011;68734;50.452;11.636;2023-04-06T00:11:35;6.35;;;4.05;;
79284;SDS011;68734;50.452;11.636;2023-04-06T00:14:00;5.13;;;3.00;;
79284;SDS011;68734;50.452;11.636;2023-04-06T00:16:26;4.95;;;2.90;;
79284;SDS011;68734;50.452;11.636;2023-04-06T00:18:51;4.57;;;3.35;;
79284;SDS011;68734;50.452;11.636;2023-04-06T00:21:19;2.80;;;2.42;;
79284;SDS011;68734;50.452;11.636;2023-04-06T00:23:44;3.92;;;3.05;;
79284;SDS011;68734;50.452;11.636;2023-04-06T00:26:10;3.53;;;2.38;;
79284;SDS011;68734;50.452;11.636;2023-04-06T00:28:36;5.63;;;2.80;;
79284;SDS011;68734;50.452;11.636;2023-04-06T00:31:03;7.95;;;3.13;;
79284;SDS011;68734;50.452;11.636;2023-04-06T00:33:28;3.97;;;2.70;;
79284;SDS011;68734;50.452;11.636;2023-04-06T00:35:54;4.80;;;3.20;;
79284;SDS011;68734;50.452;11.636;2023-04-06T00:38:19;5.20;;;3.20;;
79284;SDS011;68734;50.452;11.636;2023-04-06T00:40:45;5.20;;;3.30;;
79284;SDS011;68734;50.452;11.636;2023-04-06T00:43:11;6.18;;;2.85;;
79284;SDS011;68734;50.452;11.636;2023-04-06T00:45:40;3.95;;;3.15;;
79284;SDS011;68734;50.452;11.636;2023-04-06T00:48:06;3.78;;;2.92;;
79284;SDS011;68734;50.452;11.636;2023-04-06T00:50:33;7.82;;;2.83;;
79284;SDS011;68734;50.452;11.636;2023-04-06T00:52:59;6.70;;;2.97;;
79284;SDS011;68734;50.452;11.636;2023-04-06T00:55:26;3.22;;;2.65;;
79284;SDS011;68734;50.452;11.636;2023-04-06T00:57:51;3.80;;;2.78;;
79284;SDS011;68734;50.452;11.636;2023-04-06T01:00:20;4.30;;;3.05;;
79284;SDS011;68734;50.452;11.636;2023-04-06T01:02:45;5.38;;;4.13;;
79284;SDS011;68734;50.452;11.636;2023-04-06T01:05:11;4.45;;;3.67;;
79284;SDS011;68734;50.452;11.636;2023-04-06T01:07:37;3.55;;;3.05;;
79284;SDS011;68734;50.452;11.636;2023-04-06T01:10:03;4.90;;;3.13;;
79284;SDS011;68734;50.452;11.636;2023-04-06T01:12:29;4.97;;;3.28;;
79284;SDS011;68734;50.452;11.636;2023-04-06T01:14:54;6.07;;;3.00;;
79284;SDS011;68734;50.452;11.636;2023-04-06T01:17:20;4.10;;;2.90;;
79284;SDS011;68734;50.452;11.636;2023-04-06T01:19:46;4.55;;;3.30;;
79284;SDS011;68734;50.452;11.636;2023-04-06T01:22:17;6.13;;;4.35;;
79284;SDS011;68734;50.452;11.636;2023-04-06T01:24:43;6.03;;;3.60;;
79284;SDS011;68734;50.452;11.636;2023-04-06T01:27:11;8.27;;;4.35;;
79284;SDS011;68734;50.452;11.636;2023-04-06T01:29:38;11.48;;;4.13;;
79284;SDS011;68734;50.452;11.636;2023-04-06T01:32:06;5.55;;;3.80;;
79284;SDS011;68734;50.452;11.636;2023-04-06T01:34:32;5.78;;;3.78;;
79284;SDS011;68734;50.452;11.636;2023-04-06T01:36:57;7.47;;;3.67;;
79284;SDS011;68734;50.452;11.636;2023-04-06T01:39:23;6.03;;;4.00;;
79284;SDS011;68734;50.452;11.636;2023-04-06T01:41:48;4.35;;;3.05;;
79284;SDS011;68734;50.452;11.636;2023-04-06T01:44:17;6.38;;;3.95;;
79284;SDS011;68734;50.452;11.636;2023-04-06T01:46:45;4.97;;;3.30;;
79284;SDS011;68734;50.452;11.636;2023-04-06T01:49:13;4.97;;;3.70;;
79284;SDS011;68734;50.452;11.636;2023-04-06T01:51:41;6.88;;;3.97;;
79284;SDS011;68734;50.452;11.636;2023-04-06T01:54:06;7.32;;;3.83;;
79284;SDS011;68734;50.452;11.636;2023-04-06T01:56:31;6.22;;;3.88;;
79284;SDS011;68734;50.452;11.636;2023-04-06T01:58:57;5.05;;;3.40;;
79284;SDS011;68734;50.452;11.636;2023-04-06T02:01:22;5.28;;;3.60;;
79284;SDS011;68734;50.452;11.636;2023-04-06T02:03:48;8.77;;;4.28;;
79284;SDS011;68734;50.452;11.636;2023-04-06T02:06:13;7.43;;;4.90;;
79284;SDS011;68734;50.452;11.636;2023-04-06T02:08:41;10.80;;;4.60;;
79284;SDS011;68734;50.452;11.636;2023-04-06T02:13:32;9.27;;;4.40;;
79284;SDS011;68734;50.452;11.636;2023-04-06T02:15:59;5.45;;;4.55;;
79284;SDS011;68734;50.452;11.636;2023-04-06T02:18:26;5.72;;;4.32;;
79284;SDS011;68734;50.452;11.636;2023-04-06T02:20:53;6.28;;;4.70;;
79284;SDS011;68734;50.452;11.636;2023-04-06T02:25:44;7.10;;;4.55;;
79284;SDS011;68734;50.452;11.636;2023-04-06T02:28:10;8.52;;;4.82;;
79284;SDS011;68734;50.452;11.636;2023-04-06T02:30:35;12.52;;;6.03;;
79284;SDS011;68734;50.452;11.636;2023-04-06T02:35:30;10.23;;;5.45;;
79284;SDS011;68734;50.452;11.636;2023-04-06T02:37:56;9.13;;;5.93;;
79284;SDS011;68734;50.452;11.636;2023-04-06T02:42:47;7.82;;;5.72;;
79284;SDS011;68734;50.452;11.636;2023-04-06T02:45:12;8.55;;;5.20;;
79284;SDS011;68734;50.452;11.636;2023-04-06T02:47:38;8.60;;;5.93;;
79284;SDS011;68734;50.452;11.636;2023-04-06T02:52:29;12.10;;;5.93;;
79284;SDS011;68734;50.452;11.636;2023-04-06T02:54:55;9.82;;;6.22;;
79284;SDS011;68734;50.452;11.636;2023-04-06T02:57:22;7.40;;;5.72;;
79284;SDS011;68734;50.452;11.636;2023-04-06T02:59:48;7.68;;;5.65;;
79284;SDS011;68734;50.452;11.636;2023-04-06T03:02:18;7.38;;;6.05;;
79284;SDS011;68734;50.452;11.636;2023-04-06T03:07:09;8.23;;;5.68;;
79284;SDS011;68734;50.452;11.636;2023-04-06T03:09:36;8.38;;;4.93;;
79284;SDS011;68734;50.452;11.636;2023-04-06T03:12:02;7.00;;;4.88;;
79284;SDS011;68734;50.452;11.636;2023-04-06T03:16:53;11.50;;;5.27;;
79284;SDS011;68734;50.452;11.636;2023-04-06T03:21:44;6.73;;;5.40;;
79284;SDS011;68734;50.452;11.636;2023-04-06T03:26:38;8.70;;;5.80;;
79284;SDS011;68734;50.452;11.636;2023-04-06T03:29:06;8.68;;;5.82;;
79284;SDS011;68734;50.452;11.636;2023-04-06T03:33:57;14.38;;;6.53;;
79284;SDS011;68734;50.452;11.636;2023-04-06T03:38:48;9.03;;;5.83;;
79284;SDS011;68734;50.452;11.636;2023-04-06T03:41:13;11.13;;;6.78;;
79284;SDS011;68734;50.452;11.636;2023-04-06T03:43:42;9.32;;;6.00;;
79284;SDS011;68734;50.452;11.636;2023-04-06T03:46:07;10.45;;;6.82;;
79284;SDS011;68734;50.452;11.636;2023-04-06T03:50:58;10.20;;;5.60;;
79284;SDS011;68734;50.452;11.636;2023-04-06T03:53:23;8.68;;;5.53;;
79284;SDS011;68734;50.452;11.636;2023-04-06T03:55:51;13.57;;;6.32;;
79284;SDS011;68734;50.452;11.636;2023-04-06T04:00:42;9.60;;;6.00;;
79284;SDS011;68734;50.452;11.636;2023-04-06T04:03:07;8.75;;;6.45;;
79284;SDS011;68734;50.452;11.636;2023-04-06T04:07:58;12.17;;;5.80;;
79284;SDS011;68734;50.452;11.636;2023-04-06T04:10:26;10.43;;;7.10;;
79284;SDS011;68734;50.452;11.636;2023-04-06T04:15:17;6.97;;;4.77;;
79284;SDS011;68734;50.452;11.636;2023-04-06T04:20:11;8.98;;;5.32;;
79284;SDS011;68734;50.452;11.636;2023-04-06T04:22:38;8.88;;;5.20;;
79284;SDS011;68734;50.452;11.636;2023-04-06T04:27:28;8.50;;;5.80;;
79284;SDS011;68734;50.452;11.636;2023-04-06T04:32:20;7.60;;;5.63;;
79284;SDS011;68734;50.452;11.636;2023-04-06T04:37:13;8.10;;;5.82;;
79284;SDS011;68734;50.452;11.636;2023-04-06T04:42:04;7.13;;;5.57;;
79284;SDS011;68734;50.452;11.636;2023-04-06T04:44:30;10.88;;;6.10;;
79284;SDS011;68734;50.452;11.636;2023-04-06T04:49:21;8.68;;;5.32;;
79284;SDS011;68734;50.452;11.636;2023-04-06T04:54:17;10.70;;;5.32;;
79284;SDS011;68734;50.452;11.636;2023-04-06T04:56:44;6.45;;;5.47;;
79284;SDS011;68734;50.452;11.636;2023-04-06T04:59:10;11.68;;;5.70;;
79284;SDS011;68734;50.452;11.636;2023-04-06T05:01:38;7.55;;;4.95;;
79284;SDS011;68734;50.452;11.636;2023-04-06T05:06:29;5.50;;;4.25;;
79284;SDS011;68734;50.452;11.636;2023-04-06T05:08:57;7.93;;;5.35;;
79284;SDS011;68734;50.452;11.636;2023-04-06T05:11:22;8.82;;;5.43;;
79284;SDS011;68734;50.452;11.636;2023-04-06T05:13:51;6.30;;;4.88;;
79284;SDS011;68734;50.452;11.636;2023-04-06T05:16:16;8.05;;;5.10;;
79284;SDS011;68734;50.452;11.636;2023-04-06T05:18:42;6.15;;;4.22;;
79284;SDS011;68734;50.452;11.636;2023-04-06T05:21:07;9.77;;;5.22;;
79284;SDS011;68734;50.452;11.636;2023-04-06T05:23:34;10.73;;;5.90;;
79284;SDS011;68734;50.452;11.636;2023-04-06T05:26:00;15.00;;;9.23;;
79284;SDS011;68734;50.452;11.636;2023-04-06T05:28:25;14.00;;;6.93;;
79284;SDS011;68734;50.452;11.636;2023-04-06T05:30:53;11.80;;;6.55;;
79284;SDS011;68734;50.452;11.636;2023-04-06T05:33:18;12.13;;;7.28;;
79284;SDS011;68734;50.452;11.636;2023-04-06T05:35:44;31.67;;;19.02;;
79284;SDS011;68734;50.452;11.636;2023-04-06T05:38:10;19.95;;;12.10;;
79284;SDS011;68734;50.452;11.636;2023-04-06T05:40:38;13.43;;;7.53;;
79284;SDS011;68734;50.452;11.636;2023-04-06T05:43:06;9.70;;;4.95;;
79284;SDS011;68734;50.452;11.636;2023-04-06T05:45:33;8.07;;;5.22;;
79284;SDS011;68734;50.452;11.636;2023-04-06T05:47:58;8.57;;;5.43;;
79284;SDS011;68734;50.452;11.636;2023-04-06T05:50:23;7.90;;;5.35;;
79284;SDS011;68734;50.452;11.636;2023-04-06T05:52:49;9.75;;;5.05;;
79284;SDS011;68734;50.452;11.636;2023-04-06T05:55:15;7.50;;;5.38;;
79284;SDS011;68734;50.452;11.636;2023-04-06T05:57:45;6.18;;;4.35;;
79284;SDS011;68734;50.452;11.636;2023-04-06T06:00:11;7.65;;;4.60;;
79284;SDS011;68734;50.452;11.636;2023-04-06T06:02:37;5.90;;;3.65;;
79284;SDS011;68734;50.452;11.636;2023-04-06T06:05:02;6.25;;;4.63;;
79284;SDS011;68734;50.452;11.636;2023-04-06T06:07:28;5.22;;;4.05;;
79284;SDS011;68734;50.452;11.636;2023-04-06T06:09:56;8.18;;;3.83;;
79284;SDS011;68734;50.452;11.636;2023-04-06T06:12:26;6.32;;;4.18;;
79284;SDS011;68734;50.452;11.636;2023-04-06T06:14:52;4.88;;;4.22;;
79284;SDS011;68734;50.452;11.636;2023-04-06T06:17:19;8.25;;;4.38;;
79284;SDS011;68734;50.452;11.636;2023-04-06T06:19:45;7.82;;;5.00;;
79284;SDS011;68734;50.452;11.636;2023-04-06T06:22:10;7.22;;;4.68;;
79284;SDS011;68734;50.452;11.636;2023-04-06T06:24:38;7.05;;;4.50;;
79284;SDS011;68734;50.452;11.636;2023-04-06T06:27:04;7.78;;;5.45;;
79284;SDS011;68734;50.452;11.636;2023-04-06T06:29:29;7.53;;;5.25;;
79284;SDS011;68734;50.452;11.636;2023-04-06T06:31:55;9.55;;;5.72;;
79284;SDS011;68734;50.452;11.636;2023-04-06T06:34:20;7.93;;;4.95;;
79284;SDS011;68734;50.452;11.636;2023-04-06T06:36:45;6.13;;;4.43;;
79284;SDS011;68734;50.452;11.636;2023-04-06T06:39:11;9.02;;;4.57;;
79284;SDS011;68734;50.452;11.636;2023-04-06T06:41:36;7.32;;;4.68;;
79284;SDS011;68734;50.452;11.636;2023-04-06T06:44:07;6.20;;;4.43;;
79284;SDS011;68734;50.452;11.636;2023-04-06T06:46:32;5.95;;;4.28;;
79284;SDS011;68734;50.452;11.636;2023-04-06T06:48:58;8.15;;;4.25;;
79284;SDS011;68734;50.452;11.636;2023-04-06T06:51:23;7.10;;;4.10;;
79284;SDS011;68734;50.452;11.636;2023-04-06T06:53:49;5.97;;;4.05;;
79284;SDS011;68734;50.452;11.636;2023-04-06T06:56:14;8.68;;;4.55;;
79284;SDS011;68734;50.452;11.636;2023-04-06T06:58:40;5.88;;;4.47;;
79284;SDS011;68734;50.452;11.636;2023-04-06T07:01:08;6.38;;;4.40;;
79284;SDS011;68734;50.452;11.636;2023-04-06T07:03:33;5.07;;;4.05;;
79284;SDS011;68734;50.452;11.636;2023-04-06T07:05:59;5.97;;;3.35;;
79284;SDS011;68734;50.452;11.636;2023-04-06T07:08:24;5.80;;;4.20;;
79284;SDS011;68734;50.452;11.636;2023-04-06T07:10:51;5.95;;;4.60;;
79284;SDS011;68734;50.452;11.636;2023-04-06T07:13:18;5.13;;;4.60;;
79284;SDS011;68734;50.452;11.636;2023-04-06T07:15:47;6.80;;;4.78;;
79284;SDS011;68734;50.452;11.636;2023-04-06T07:18:13;7.57;;;4.22;;
79284;SDS011;68734;50.452;11.636;2023-04-06T07:20:42;9.35;;;5.43;;
79284;SDS011;68734;50.452;11.636;2023-04-06T07:23:07;7.93;;;4.22;;
79284;SDS011;68734;50.452;11.636;2023-04-06T07:25:33;5.47;;;3.90;;
79284;SDS011;68734;50.452;11.636;2023-04-06T07:27:58;7.55;;;3.95;;
79284;SDS011;68734;50.452;11.636;2023-04-06T07:30:26;7.50;;;4.68;;
79284;SDS011;68734;50.452;11.636;2023-04-06T07:32:56;8.48;;;4.80;;
79284;SDS011;68734;50.452;11.636;2023-04-06T07:35:25;5.15;;;3.30;;
79284;SDS011;68734;50.452;11.636;2023-04-06T07:37:55;6.18;;;3.70;;
79284;SDS011;68734;50.452;11.636;2023-04-06T07:40:23;7.82;;;3.75;;
79284;SDS011;68734;50.452;11.636;2023-04-06T07:42:49;6.38;;;3.45;;
79284;SDS011;68734;50.452;11.636;2023-04-06T07:45:15;8.18;;;3.42;;
79284;SDS011;68734;50.452;11.636;2023-04-06T07:47:41;5.55;;;3.38;;
79284;SDS011;68734;50.452;11.636;2023-04-06T07:50:06;3.67;;;2.70;;
79284;SDS011;68734;50.452;11.636;2023-04-06T07:52:32;5.72;;;3.10;;
79284;SDS011;68734;50.452;11.636;2023-04-06T07:55:00;6.53;;;3.03;;
79284;SDS011;68734;50.452;11.636;2023-04-06T07:57:26;4.22;;;2.90;;
79284;SDS011;68734;50.452;11.636;2023-04-06T07:59:51;4.47;;;2.90;;
79284;SDS011;68734;50.452;11.636;2023-04-06T08:02:17;6.10;;;3.10;;
79284;SDS011;68734;50.452;11.636;2023-04-06T08:04:45;5.30;;;2.97;;
79284;SDS011;68734;50.452;11.636;2023-04-06T08:07:10;4.85;;;3.10;;
79284;SDS011;68734;50.452;11.636;2023-04-06T08:09:36;6.32;;;3.55;;
79284;SDS011;68734;50.452;11.636;2023-04-06T08:12:02;5.95;;;3.33;;
79284;SDS011;68734;50.452;11.636;2023-04-06T08:14:27;4.63;;;3.30;;
79284;SDS011;68734;50.452;11.636;2023-04-06T08:16:55;6.32;;;3.53;;
79284;SDS011;68734;50.452;11.636;2023-04-06T08:19:21;7.03;;;3.95;;
79284;SDS011;68734;50.452;11.636;2023-04-06T08:21:46;7.15;;;3.65;;
79284;SDS011;68734;50.452;11.636;2023-04-06T08:24:12;3.47;;;2.85;;
79284;SDS011;68734;50.452;11.636;2023-04-06T08:26:38;6.43;;;3.00;;
79284;SDS011;68734;50.452;11.636;2023-04-06T08:29:04;4.95;;;3.33;;
79284;SDS011;68734;50.452;11.636;2023-04-06T08:31:34;3.97;;;2.72;;
79284;SDS011;68734;50.452;11.636;2023-04-06T08:34:01;6.82;;;3.22;;
79284;SDS011;68734;50.452;11.636;2023-04-06T08:36:27;5.03;;;2.97;;
79284;SDS011;68734;50.452;11.636;2023-04-06T08:38:52;3.97;;;3.05;;
79284;SDS011;68734;50.452;11.636;2023-04-06T08:41:19;7.13;;;3.30;;
79284;SDS011;68734;50.452;11.636;2023-04-06T08:44:03;5.00;;;3.40;;
79284;SDS011;68734;50.452;11.636;2023-04-06T08:46:43;3.88;;;2.85;;
79284;SDS011;68734;50.452;11.636;2023-04-06T08:49:15;3.70;;;3.33;;
79284;SDS011;68734;50.452;11.636;2023-04-06T08:51:41;4.55;;;2.60;;
79284;SDS011;68734;50.452;11.636;2023-04-06T08:54:07;4.63;;;3.33;;
79284;SDS011;68734;50.452;11.636;2023-04-06T08:56:32;4.50;;;3.05;;
79284;SDS011;68734;50.452;11.636;2023-04-06T08:59:02;4.28;;;3.17;;
79284;SDS011;68734;50.452;11.636;2023-04-06T09:01:31;5.60;;;2.97;;
79284;SDS011;68734;50.452;11.636;2023-04-06T09:04:01;3.90;;;3.30;;
79284;SDS011;68734;50.452;11.636;2023-04-06T09:06:33;6.55;;;3.25;;
79284;SDS011;68734;50.452;11.636;2023-04-06T09:08:59;3.53;;;2.45;;
79284;SDS011;68734;50.452;11.636;2023-04-06T09:11:24;6.80;;;3.38;;
79284;SDS011;68734;50.452;11.636;2023-04-06T09:13:51;8.38;;;3.45;;
79284;SDS011;68734;50.452;11.636;2023-04-06T09:16:24;4.93;;;3.20;;
79284;SDS011;68734;50.452;11.636;2023-04-06T09:18:50;5.85;;;3.22;;
79284;SDS011;68734;50.452;11.636;2023-04-06T09:21:17;3.72;;;2.80;;
79284;SDS011;68734;50.452;11.636;2023-04-06T09:23:43;4.18;;;2.95;;
79284;SDS011;68734;50.452;11.636;2023-04-06T09:26:13;4.55;;;2.58;;
79284;SDS011;68734;50.452;11.636;2023-04-06T09:28:49;3.88;;;2.92;;
79284;SDS011;68734;50.452;11.636;2023-04-06T09:33:51;4.20;;;2.65;;
79284;SDS011;68734;50.452;11.636;2023-04-06T09:36:17;4.22;;;2.97;;
79284;SDS011;68734;50.452;11.636;2023-04-06T09:41:22;5.35;;;3.38;;
79284;SDS011;68734;50.452;11.636;2023-04-06T09:44:01;4.72;;;2.83;;
79284;SDS011;68734;50.452;11.636;2023-04-06T09:46:46;5.53;;;3.70;;
79284;SDS011;68734;50.452;11.636;2023-04-06T09:49:12;4.63;;;3.00;;
79284;SDS011;68734;50.452;11.636;2023-04-06T09:51:45;4.47;;;3.15;;
79284;SDS011;68734;50.452;11.636;2023-04-06T09:54:18;5.30;;;3.00;;
79284;SDS011;68734;50.452;11.636;2023-04-06T09:59:14;5.25;;;3.10;;
79284;SDS011;68734;50.452;11.636;2023-04-06T10:01:54;4.53;;;2.83;;
79284;SDS011;68734;50.452;11.636;2023-04-06T10:06:54;3.97;;;2.75;;
79284;SDS011;68734;50.452;11.636;2023-04-06T10:09:22;5.22;;;3.35;;
79284;SDS011;68734;50.452;11.636;2023-04-06T10:11:53;5.88;;;2.97;;
79284;SDS011;68734;50.452;11.636;2023-04-06T10:14:20;5.90;;;3.47;;
79284;SDS011;68734;50.452;11.636;2023-04-06T10:16:46;4.68;;;2.83;;
79284;SDS011;68734;50.452;11.636;2023-04-06T10:19:18;3.53;;;2.72;;
79284;SDS011;68734;50.452;11.636;2023-04-06T10:21:53;3.70;;;2.78;;
79284;SDS011;68734;50.452;11.636;2023-04-06T10:24:22;5.03;;;3.42;;
79284;SDS011;68734;50.452;11.636;2023-04-06T10:27:01;3.28;;;2.40;;
79284;SDS011;68734;50.452;11.636;2023-04-06T10:29:40;5.13;;;3.45;;
79284;SDS011;68734;50.452;11.636;2023-04-06T10:32:08;4.68;;;2.60;;
79284;SDS011;68734;50.452;11.636;2023-04-06T10:34:35;5.25;;;3.20;;
79284;SDS011;68734;50.452;11.636;2023-04-06T10:37:10;5.18;;;2.97;;
79284;SDS011;68734;50.452;11.636;2023-04-06T10:39:45;5.10;;;2.58;;
79284;SDS011;68734;50.452;11.636;2023-04-06T10:42:11;10.32;;;5.30;;
79284;SDS011;68734;50.452;11.636;2023-04-06T10:44:42;5.57;;;2.58;;
79284;SDS011;68734;50.452;11.636;2023-04-06T10:47:15;3.90;;;2.83;;
79284;SDS011;68734;50.452;11.636;2023-04-06T10:49:45;4.90;;;3.10;;
79284;SDS011;68734;50.452;11.636;2023-04-06T10:52:10;6.65;;;3.53;;
79284;SDS011;68734;50.452;11.636;2023-04-06T10:54:38;4.05;;;3.13;;
79284;SDS011;68734;50.452;11.636;2023-04-06T10:57:11;16.55;;;9.52;;
79284;SDS011;68734;50.452;11.636;2023-04-06T10:59:41;5.25;;;4.15;;
79284;SDS011;68734;50.452;11.636;2023-04-06T11:02:08;3.88;;;2.30;;
79284;SDS011;68734;50.452;11.636;2023-04-06T11:04:33;4.05;;;2.40;;
79284;SDS011;68734;50.452;11.636;2023-04-06T11:06:59;4.60;;;2.58;;
79284;SDS011;68734;50.452;11.636;2023-04-06T11:11:50;3.75;;;2.47;;
79284;SDS011;68734;50.452;11.636;2023-04-06T11:14:18;4.70;;;2.97;;
79284;SDS011;68734;50.452;11.636;2023-04-06T11:16:45;5.18;;;3.15;;
79284;SDS011;68734;50.452;11.636;2023-04-06T11:19:12;3.95;;;2.70;;
79284;SDS011;68734;50.452;11.636;2023-04-06T11:21:42;4.07;;;3.08;;
79284;SDS011;68734;50.452;11.636;2023-04-06T11:24:09;3.38;;;2.50;;
79284;SDS011;68734;50.452;11.636;2023-04-06T11:26:48;5.25;;;2.88;;
79284;SDS011;68734;50.452;11.636;2023-04-06T11:29:17;3.72;;;2.78;;
79284;SDS011;68734;50.452;11.636;2023-04-06T11:32:06;3.38;;;2.60;;
79284;SDS011;68734;50.452;11.636;2023-04-06T11:34:33;4.75;;;3.15;;
79284;SDS011;68734;50.452;11.636;2023-04-06T11:37:04;4.60;;;2.65;;
79284;SDS011;68734;50.452;11.636;2023-04-06T11:39:54;2.95;;;2.22;;
79284;SDS011;68734;50.452;11.636;2023-04-06T11:42:29;3.70;;;2.45;;
79284;SDS011;68734;50.452;11.636;2023-04-06T11:44:55;4.43;;;2.72;;
79284;SDS011;68734;50.452;11.636;2023-04-06T11:47:37;2.85;;;2.22;;
79284;SDS011;68734;50.452;11.636;2023-04-06T11:50:09;3.92;;;2.40;;
79284;SDS011;68734;50.452;11.636;2023-04-06T11:52:37;4.65;;;2.55;;
79284;SDS011;68734;50.452;11.636;2023-04-06T11:55:11;6.22;;;2.80;;
79284;SDS011;68734;50.452;11.636;2023-04-06T11:57:39;4.47;;;2.80;;
79284;SDS011;68734;50.452;11.636;2023-04-06T12:00:05;3.53;;;2.70;;
79284;SDS011;68734;50.452;11.636;2023-04-06T12:02:33;4.88;;;3.10;;
79284;SDS011;68734;50.452;11.636;2023-04-06T12:04:58;4.95;;;2.85;;
79284;SDS011;68734;50.452;11.636;2023-04-06T12:07:24;3.35;;;2.53;;
79284;SDS011;68734;50.452;11.636;2023-04-06T12:09:49;4.35;;;2.75;;
79284;SDS011;68734;50.452;11.636;2023-04-06T12:12:17;4.15;;;2.53;;
79284;SDS011;68734;50.452;11.636;2023-04-06T12:14:43;3.63;;;2.67;;
79284;SDS011;68734;50.452;11.636;2023-04-06T12:17:12;5.13;;;2.65;;
79284;SDS011;68734;50.452;11.636;2023-04-06T12:19:38;2.85;;;2.20;;
79284;SDS011;68734;50.452;11.636;2023-04-06T12:22:05;4.53;;;2.47;;
79284;SDS011;68734;50.452;11.636;2023-04-06T12:24:31;5.43;;;3.28;;
79284;SDS011;68734;50.452;11.636;2023-04-06T12:26:56;4.18;;;2.78;;
79284;SDS011;68734;50.452;11.636;2023-04-06T12:29:24;8.43;;;2.65;;
79284;SDS011;68734;50.452;11.636;2023-04-06T12:31:51;3.80;;;3.22;;
79284;SDS011;68734;50.452;11.636;2023-04-06T12:34:18;3.28;;;2.88;;
79284;SDS011;68734;50.452;11.636;2023-04-06T12:36:43;5.10;;;2.78;;
79284;SDS011;68734;50.452;11.636;2023-04-06T12:39:08;4.20;;;2.88;;
79284;SDS011;68734;50.452;11.636;2023-04-06T12:41:36;3.22;;;2.42;;
79284;SDS011;68734;50.452;11.636;2023-04-06T12:44:05;3.33;;;2.70;;
79284;SDS011;68734;50.452;11.636;2023-04-06T12:46:31;3.28;;;2.55;;
79284;SDS011;68734;50.452;11.636;2023-04-06T12:48:56;2.97;;;2.55;;
79284;SDS011;68734;50.452;11.636;2023-04-06T12:51:23;3.17;;;2.38;;
79284;SDS011;68734;50.452;11.636;2023-04-06T12:53:54;4.57;;;3.03;;
79284;SDS011;68734;50.452;11.636;2023-04-06T12:56:20;3.63;;;2.83;;
79284;SDS011;68734;50.452;11.636;2023-04-06T12:58:50;5.18;;;2.83;;
79284;SDS011;68734;50.452;11.636;2023-04-06T13:01:19;4.15;;;2.80;;
79284;SDS011;68734;50.452;11.636;2023-04-06T13:03:45;4.25;;;2.55;;
79284;SDS011;68734;50.452;11.636;2023-04-06T13:06:12;3.50;;;2.95;;
79284;SDS011;68734;50.452;11.636;2023-04-06T13:08:39;4.10;;;3.22;;
79284;SDS011;68734;50.452;11.636;2023-04-06T13:11:08;3.85;;;3.20;;
79284;SDS011;68734;50.452;11.636;2023-04-06T13:13:34;5.65;;;3.90;;
79284;SDS011;68734;50.452;11.636;2023-04-06T13:16:00;6.82;;;4.13;;
79284;SDS011;68734;50.452;11.636;2023-04-06T13:18:27;4.82;;;3.00;;
79284;SDS011;68734;50.452;11.636;2023-04-06T13:20:54;5.80;;;3.55;;
79284;SDS011;68734;50.452;11.636;2023-04-06T13:23:21;5.30;;;3.75;;
79284;SDS011;68734;50.452;11.636;2023-04-06T13:25:59;3.60;;;3.15;;
79284;SDS011;68734;50.452;11.636;2023-04-06T13:28:25;7.80;;;3.67;;
79284;SDS011;68734;50.452;11.636;2023-04-06T13:30:53;5.32;;;3.33;;
79284;SDS011;68734;50.452;11.636;2023-04-06T13:33:19;5.50;;;3.85;;
79284;SDS011;68734;50.452;11.636;2023-04-06T13:35:45;5.72;;;3.03;;
79284;SDS011;68734;50.452;11.636;2023-04-06T13:38:11;5.80;;;3.55;;
79284;SDS011;68734;50.452;11.636;2023-04-06T13:40:40;4.90;;;3.20;;
79284;SDS011;68734;50.452;11.636;2023-04-06T13:43:06;5.53;;;3.10;;
79284;SDS011;68734;50.452;11.636;2023-04-06T13:45:32;6.05;;;3.70;;
79284;SDS011;68734;50.452;11.636;2023-04-06T13:47:57;6.07;;;4.15;;
79284;SDS011;68734;50.452;11.636;2023-04-06T13:50:25;7.35;;;3.80;;
79284;SDS011;68734;50.452;11.636;2023-04-06T13:52:51;5.03;;;3.83;;
79284;SDS011;68734;50.452;11.636;2023-04-06T13:55:17;4.88;;;2.78;;
79284;SDS011;68734;50.452;11.636;2023-04-06T13:57:42;11.43;;;8.25;;
79284;SDS011;68734;50.452;11.636;2023-04-06T14:00:08;4.97;;;3.67;;
79284;SDS011;68734;50.452;11.636;2023-04-06T14:02:34;4.93;;;4.40;;
79284;SDS011;68734;50.452;11.636;2023-04-06T14:04:59;6.35;;;3.33;;
79284;SDS011;68734;50.452;11.636;2023-04-06T14:07:25;4.07;;;3.03;;
79284;SDS011;68734;50.452;11.636;2023-04-06T14:09:51;5.60;;;3.30;;
79284;SDS011;68734;50.452;11.636;2023-04-06T14:12:16;5.50;;;3.33;;
79284;SDS011;68734;50.452;11.636;2023-04-06T14:14:41;5.20;;;3.63;;
79284;SDS011;68734;50.452;11.636;2023-04-06T14:17:07;5.40;;;2.95;;
79284;SDS011;68734;50.452;11.636;2023-04-06T14:19:33;4.32;;;3.38;;
79284;SDS011;68734;50.452;11.636;2023-04-06T14:21:59;4.18;;;2.75;;
79284;SDS011;68734;50.452;11.636;2023-04-06T14:24:25;3.40;;;2.70;;
79284;SDS011;68734;50.452;11.636;2023-04-06T14:26:51;4.80;;;3.20;;
79284;SDS011;68734;50.452;11.636;2023-04-06T14:29:17;5.50;;;3.38;;
79284;SDS011;68734;50.452;11.636;2023-04-06T14:31:44;4.07;;;2.83;;
79284;SDS011;68734;50.452;11.636;2023-04-06T14:34:12;4.25;;;3.42;;
79284;SDS011;68734;50.452;11.636;2023-04-06T14:36:38;4.68;;;3.25;;
79284;SDS011;68734;50.452;11.636;2023-04-06T14:39:05;5.32;;;3.03;;
79284;SDS011;68734;50.452;11.636;2023-04-06T14:41:32;4.43;;;3.05;;
79284;SDS011;68734;50.452;11.636;2023-04-06T14:43:59;7.30;;;3.70;;
79284;SDS011;68734;50.452;11.636;2023-04-06T14:46:25;5.63;;;3.60;;
79284;SDS011;68734;50.452;11.636;2023-04-06T14:48:58;4.05;;;3.08;;
79284;SDS011;68734;50.452;11.636;2023-04-06T14:51:26;6.38;;;3.17;;
79284;SDS011;68734;50.452;11.636;2023-04-06T14:53:52;5.35;;;2.80;;
79284;SDS011;68734;50.452;11.636;2023-04-06T14:56:22;5.90;;;3.78;;
79284;SDS011;68734;50.452;11.636;2023-04-06T14:58:49;5.68;;;3.20;;
79284;SDS011;68734;50.452;11.636;2023-04-06T15:01:16;3.50;;;2.88;;
79284;SDS011;68734;50.452;11.636;2023-04-06T15:03:45;3.47;;;2.92;;
79284;SDS011;68734;50.452;11.636;2023-04-06T15:06:11;5.28;;;3.15;;
79284;SDS011;68734;50.452;11.636;2023-04-06T15:08:40;3.78;;;3.17;;
79284;SDS011;68734;50.452;11.636;2023-04-06T15:11:09;4.35;;;2.95;;
79284;SDS011;68734;50.452;11.636;2023-04-06T15:13:38;3.97;;;3.22;;
79284;SDS011;68734;50.452;11.636;2023-04-06T15:16:05;4.70;;;3.10;;
79284;SDS011;68734;50.452;11.636;2023-04-06T15:18:31;5.80;;;3.92;;
79284;SDS011;68734;50.452;11.636;2023-04-06T15:20:59;3.70;;;2.63;;
79284;SDS011;68734;50.452;11.636;2023-04-06T15:23:25;5.18;;;2.80;;
79284;SDS011;68734;50.452;11.636;2023-04-06T15:25:51;4.03;;;2.92;;
79284;SDS011;68734;50.452;11.636;2023-04-06T15:28:19;5.43;;;3.03;;
79284;SDS011;68734;50.452;11.636;2023-04-06T15:30:45;4.72;;;2.78;;
79284;SDS011;68734;50.452;11.636;2023-04-06T15:33:10;3.60;;;2.75;;
79284;SDS011;68734;50.452;11.636;2023-04-06T15:35:35;3.65;;;2.63;;
79284;SDS011;68734;50.452;11.636;2023-04-06T15:38:06;3.65;;;2.72;;
79284;SDS011;68734;50.452;11.636;2023-04-06T15:40:33;5.53;;;4.57;;
79284;SDS011;68734;50.452;11.636;2023-04-06T15:42:59;8.25;;;5.38;;